sensor_id;sensor_type;location;lat;lon;timestamp;P1;durP1;ratioP1;P2;durP2;ratioP2
15071;SDS011;7635;56.696;13.002;2023-05-07T00:01:35;1.43;;;1.33;;
15071;SDS011;7635;56.696;13.002;2023-05-07T00:04:02;1.30;;;1.20;;
15071;SDS011;7635;56.696;13.002;2023-05-07T00:06:29;4.50;;;1.60;;
15071;SDS011;7635;56.696;13.002;2023-05-07T00:08:56;1.33;;;1.23;;
15071;SDS011;7635;56.696;13.002;2023-05-07T00:11:24;1.40;;;1.20;;
15071;SDS011;7635;56.696;13.002;2023-05-07T00:13:51;1.40;;;1.30;;
15071;SDS011;7635;56.696;13.002;2023-05-07T00:16:18;2.60;;;1.40;;
15071;SDS011;7635;56.696;13.002;2023-05-07T00:18:45;7.70;;;1.30;;
15071;SDS011;7635;56.696;13.002;2023-05-07T00:21:12;1.60;;;1.50;;
15071;SDS011;7635;56.696;13.002;2023-05-07T00:23:38;1.30;;;1.20;;
15071;SDS011;7635;56.696;13.002;2023-05-07T00:26:05;1.47;;;1.30;;
15071;SDS011;7635;56.696;13.002;2023-05-07T00:28:33;1.47;;;1.37;;
15071;SDS011;7635;56.696;13.002;2023-05-07T00:31:00;1.53;;;1.40;;
15071;SDS011;7635;56.696;13.002;2023-05-07T00:33:26;2.57;;;1.47;;
15071;SDS011;7635;56.696;13.002;2023-05-07T00:35:53;2.03;;;1.30;;
15071;SDS011;7635;56.696;13.002;2023-05-07T00:38:20;1.40;;;1.27;;
15071;SDS011;7635;56.696;13.002;2023-05-07T00:40:46;1.90;;;1.33;;
15071;SDS011;7635;56.696;13.002;2023-05-07T00:43:13;2.90;;;1.30;;
15071;SDS011;7635;56.696;13.002;2023-05-07T00:45:41;1.33;;;1.23;;
15071;SDS011;7635;56.696;13.002;2023-05-07T00:48:08;1.37;;;1.27;;
15071;SDS011;7635;56.696;13.002;2023-05-07T00:50:35;1.30;;;1.20;;
15071;SDS011;7635;56.696;13.002;2023-05-07T00:53:01;1.40;;;1.30;;
15071;SDS011;7635;56.696;13.002;2023-05-07T00:55:28;1.23;;;1.20;;
15071;SDS011;7635;56.696;13.002;2023-05-07T00:57:55;2.00;;;1.10;;
15071;SDS011;7635;56.696;13.002;2023-05-07T01:00:22;2.10;;;1.40;;
15071;SDS011;7635;56.696;13.002;2023-05-07T01:02:51;1.37;;;1.27;;
15071;SDS011;7635;56.696;13.002;2023-05-07T01:05:18;1.87;;;1.70;;
15071;SDS011;7635;56.696;13.002;2023-05-07T01:07:45;1.40;;;1.30;;
15071;SDS011;7635;56.696;13.002;2023-05-07T01:10:13;1.47;;;1.37;;
15071;SDS011;7635;56.696;13.002;2023-05-07T01:12:40;1.60;;;1.50;;
15071;SDS011;7635;56.696;13.002;2023-05-07T01:15:08;1.70;;;1.33;;
15071;SDS011;7635;56.696;13.002;2023-05-07T01:17:36;1.50;;;1.40;;
15071;SDS011;7635;56.696;13.002;2023-05-07T01:20:05;2.33;;;1.30;;
15071;SDS011;7635;56.696;13.002;2023-05-07T01:22:34;1.20;;;1.10;;
15071;SDS011;7635;56.696;13.002;2023-05-07T01:25:03;1.63;;;1.17;;
15071;SDS011;7635;56.696;13.002;2023-05-07T01:27:30;1.70;;;1.60;;
15071;SDS011;7635;56.696;13.002;2023-05-07T01:29:58;2.70;;;1.40;;
15071;SDS011;7635;56.696;13.002;2023-05-07T01:32:26;4.33;;;1.33;;
15071;SDS011;7635;56.696;13.002;2023-05-07T01:34:57;1.50;;;1.23;;
15071;SDS011;7635;56.696;13.002;2023-05-07T01:37:24;2.37;;;1.23;;
15071;SDS011;7635;56.696;13.002;2023-05-07T01:39:53;1.33;;;1.23;;
15071;SDS011;7635;56.696;13.002;2023-05-07T01:42:20;2.10;;;1.60;;
15071;SDS011;7635;56.696;13.002;2023-05-07T01:44:48;1.40;;;1.30;;
15071;SDS011;7635;56.696;13.002;2023-05-07T01:47:14;1.50;;;1.40;;
15071;SDS011;7635;56.696;13.002;2023-05-07T01:49:42;1.33;;;1.23;;
15071;SDS011;7635;56.696;13.002;2023-05-07T01:52:10;1.93;;;1.60;;
15071;SDS011;7635;56.696;13.002;2023-05-07T01:54:37;2.67;;;1.33;;
15071;SDS011;7635;56.696;13.002;2023-05-07T01:57:06;2.43;;;1.33;;
15071;SDS011;7635;56.696;13.002;2023-05-07T01:59:33;1.50;;;1.40;;
15071;SDS011;7635;56.696;13.002;2023-05-07T02:02:00;1.27;;;1.17;;
15071;SDS011;7635;56.696;13.002;2023-05-07T02:04:26;1.53;;;1.40;;
15071;SDS011;7635;56.696;13.002;2023-05-07T02:06:53;2.37;;;1.70;;
15071;SDS011;7635;56.696;13.002;2023-05-07T02:09:20;1.53;;;1.20;;
15071;SDS011;7635;56.696;13.002;2023-05-07T02:11:48;1.50;;;1.40;;
15071;SDS011;7635;56.696;13.002;2023-05-07T02:14:16;1.47;;;1.37;;
15071;SDS011;7635;56.696;13.002;2023-05-07T02:16:42;1.37;;;1.27;;
15071;SDS011;7635;56.696;13.002;2023-05-07T02:19:09;1.63;;;1.37;;
15071;SDS011;7635;56.696;13.002;2023-05-07T02:21:36;1.40;;;1.30;;
15071;SDS011;7635;56.696;13.002;2023-05-07T02:24:03;1.20;;;1.20;;
15071;SDS011;7635;56.696;13.002;2023-05-07T02:26:29;1.27;;;1.20;;
15071;SDS011;7635;56.696;13.002;2023-05-07T02:28:56;1.40;;;1.27;;
15071;SDS011;7635;56.696;13.002;2023-05-07T02:31:24;1.50;;;1.40;;
15071;SDS011;7635;56.696;13.002;2023-05-07T02:33:51;1.93;;;1.50;;
15071;SDS011;7635;56.696;13.002;2023-05-07T02:36:18;1.60;;;1.30;;
15071;SDS011;7635;56.696;13.002;2023-05-07T02:38:44;1.20;;;1.17;;
15071;SDS011;7635;56.696;13.002;2023-05-07T02:41:11;1.40;;;1.30;;
15071;SDS011;7635;56.696;13.002;2023-05-07T02:43:38;1.63;;;1.50;;
15071;SDS011;7635;56.696;13.002;2023-05-07T02:46:05;1.60;;;1.50;;
15071;SDS011;7635;56.696;13.002;2023-05-07T02:48:34;1.40;;;1.30;;
15071;SDS011;7635;56.696;13.002;2023-05-07T02:51:01;1.60;;;1.50;;
15071;SDS011;7635;56.696;13.002;2023-05-07T02:53:28;2.00;;;1.50;;
15071;SDS011;7635;56.696;13.002;2023-05-07T02:55:55;2.20;;;1.50;;
15071;SDS011;7635;56.696;13.002;2023-05-07T02:58:23;1.40;;;1.30;;
15071;SDS011;7635;56.696;13.002;2023-05-07T03:00:49;1.60;;;1.23;;
15071;SDS011;7635;56.696;13.002;2023-05-07T03:03:16;1.53;;;1.43;;
15071;SDS011;7635;56.696;13.002;2023-05-07T03:05:45;1.47;;;1.37;;
15071;SDS011;7635;56.696;13.002;2023-05-07T03:08:11;1.63;;;1.53;;
15071;SDS011;7635;56.696;13.002;2023-05-07T03:10:38;1.30;;;1.20;;
15071;SDS011;7635;56.696;13.002;2023-05-07T03:13:05;1.37;;;1.30;;
15071;SDS011;7635;56.696;13.002;2023-05-07T03:15:32;2.10;;;1.40;;
15071;SDS011;7635;56.696;13.002;2023-05-07T03:17:58;1.60;;;1.50;;
15071;SDS011;7635;56.696;13.002;2023-05-07T03:20:25;4.00;;;1.77;;
15071;SDS011;7635;56.696;13.002;2023-05-07T03:22:53;1.50;;;1.40;;
15071;SDS011;7635;56.696;13.002;2023-05-07T03:25:20;1.60;;;1.50;;
15071;SDS011;7635;56.696;13.002;2023-05-07T03:27:46;1.60;;;1.50;;
15071;SDS011;7635;56.696;13.002;2023-05-07T03:30:13;1.60;;;1.50;;
15071;SDS011;7635;56.696;13.002;2023-05-07T03:32:40;1.93;;;1.33;;
15071;SDS011;7635;56.696;13.002;2023-05-07T03:35:07;1.27;;;1.23;;
15071;SDS011;7635;56.696;13.002;2023-05-07T03:37:33;1.67;;;1.57;;
15071;SDS011;7635;56.696;13.002;2023-05-07T03:40:02;1.67;;;1.57;;
15071;SDS011;7635;56.696;13.002;2023-05-07T03:42:29;1.40;;;1.30;;
15071;SDS011;7635;56.696;13.002;2023-05-07T03:44:55;1.83;;;1.33;;
15071;SDS011;7635;56.696;13.002;2023-05-07T03:47:22;1.63;;;1.53;;
15071;SDS011;7635;56.696;13.002;2023-05-07T03:49:49;1.23;;;1.17;;
15071;SDS011;7635;56.696;13.002;2023-05-07T03:52:18;1.43;;;1.33;;
15071;SDS011;7635;56.696;13.002;2023-05-07T03:54:48;2.03;;;1.30;;
15071;SDS011;7635;56.696;13.002;2023-05-07T03:57:16;1.67;;;1.30;;
15071;SDS011;7635;56.696;13.002;2023-05-07T03:59:43;1.30;;;1.20;;
15071;SDS011;7635;56.696;13.002;2023-05-07T04:02:10;1.63;;;1.50;;
15071;SDS011;7635;56.696;13.002;2023-05-07T04:04:37;1.53;;;1.33;;
15071;SDS011;7635;56.696;13.002;2023-05-07T04:07:03;1.80;;;1.60;;
15071;SDS011;7635;56.696;13.002;2023-05-07T04:09:30;3.33;;;1.90;;
15071;SDS011;7635;56.696;13.002;2023-05-07T04:11:57;1.77;;;1.40;;
15071;SDS011;7635;56.696;13.002;2023-05-07T04:14:25;1.30;;;1.20;;
15071;SDS011;7635;56.696;13.002;2023-05-07T04:16:51;1.40;;;1.30;;
15071;SDS011;7635;56.696;13.002;2023-05-07T04:19:18;1.40;;;1.30;;
15071;SDS011;7635;56.696;13.002;2023-05-07T04:21:45;1.97;;;1.47;;
15071;SDS011;7635;56.696;13.002;2023-05-07T04:24:11;1.40;;;1.30;;
15071;SDS011;7635;56.696;13.002;2023-05-07T04:26:38;1.60;;;1.50;;
15071;SDS011;7635;56.696;13.002;2023-05-07T04:29:05;1.40;;;1.30;;
15071;SDS011;7635;56.696;13.002;2023-05-07T04:31:33;3.90;;;1.57;;
15071;SDS011;7635;56.696;13.002;2023-05-07T04:34:00;1.60;;;1.50;;
15071;SDS011;7635;56.696;13.002;2023-05-07T04:36:27;1.40;;;1.30;;
15071;SDS011;7635;56.696;13.002;2023-05-07T04:38:54;1.42;;;1.33;;
15071;SDS011;7635;56.696;13.002;2023-05-07T04:41:21;2.50;;;1.10;;
15071;SDS011;7635;56.696;13.002;2023-05-07T04:43:47;1.47;;;1.37;;
15071;SDS011;7635;56.696;13.002;2023-05-07T04:46:14;1.30;;;1.20;;
15071;SDS011;7635;56.696;13.002;2023-05-07T04:48:42;2.70;;;1.15;;
15071;SDS011;7635;56.696;13.002;2023-05-07T04:51:09;1.50;;;1.40;;
15071;SDS011;7635;56.696;13.002;2023-05-07T04:53:36;1.50;;;1.40;;
15071;SDS011;7635;56.696;13.002;2023-05-07T04:56:03;1.17;;;1.13;;
15071;SDS011;7635;56.696;13.002;2023-05-07T04:58:30;1.33;;;1.23;;
15071;SDS011;7635;56.696;13.002;2023-05-07T05:00:57;1.47;;;1.33;;
15071;SDS011;7635;56.696;13.002;2023-05-07T05:03:23;1.50;;;1.40;;
15071;SDS011;7635;56.696;13.002;2023-05-07T05:05:51;1.80;;;1.40;;
15071;SDS011;7635;56.696;13.002;2023-05-07T05:08:18;1.50;;;1.40;;
15071;SDS011;7635;56.696;13.002;2023-05-07T05:10:45;2.03;;;1.60;;
15071;SDS011;7635;56.696;13.002;2023-05-07T05:13:13;1.23;;;1.10;;
15071;SDS011;7635;56.696;13.002;2023-05-07T05:15:40;1.43;;;1.30;;
15071;SDS011;7635;56.696;13.002;2023-05-07T05:18:07;1.43;;;1.33;;
15071;SDS011;7635;56.696;13.002;2023-05-07T05:20:33;3.00;;;1.83;;
15071;SDS011;7635;56.696;13.002;2023-05-07T05:23:01;1.23;;;1.23;;
15071;SDS011;7635;56.696;13.002;2023-05-07T05:25:28;1.77;;;1.23;;
15071;SDS011;7635;56.696;13.002;2023-05-07T05:27:55;1.50;;;1.40;;
15071;SDS011;7635;56.696;13.002;2023-05-07T05:30:21;1.50;;;1.40;;
15071;SDS011;7635;56.696;13.002;2023-05-07T05:32:48;2.43;;;1.80;;
15071;SDS011;7635;56.696;13.002;2023-05-07T05:35:15;1.67;;;1.57;;
15071;SDS011;7635;56.696;13.002;2023-05-07T05:37:42;3.93;;;1.30;;
15071;SDS011;7635;56.696;13.002;2023-05-07T05:40:10;1.33;;;1.23;;
15071;SDS011;7635;56.696;13.002;2023-05-07T05:42:37;2.03;;;1.63;;
15071;SDS011;7635;56.696;13.002;2023-05-07T05:45:05;1.90;;;1.57;;
15071;SDS011;7635;56.696;13.002;2023-05-07T05:47:32;1.53;;;1.40;;
15071;SDS011;7635;56.696;13.002;2023-05-07T05:49:59;2.53;;;1.80;;
15071;SDS011;7635;56.696;13.002;2023-05-07T05:52:25;2.13;;;1.43;;
15071;SDS011;7635;56.696;13.002;2023-05-07T05:54:53;1.40;;;1.30;;
15071;SDS011;7635;56.696;13.002;2023-05-07T05:57:21;1.70;;;1.60;;
15071;SDS011;7635;56.696;13.002;2023-05-07T05:59:47;1.57;;;1.47;;
15071;SDS011;7635;56.696;13.002;2023-05-07T06:02:14;2.83;;;1.60;;
15071;SDS011;7635;56.696;13.002;2023-05-07T06:04:41;3.47;;;1.80;;
15071;SDS011;7635;56.696;13.002;2023-05-07T06:07:07;2.47;;;1.80;;
15071;SDS011;7635;56.696;13.002;2023-05-07T06:09:34;5.93;;;2.63;;
15071;SDS011;7635;56.696;13.002;2023-05-07T06:12:01;4.27;;;2.50;;
15071;SDS011;7635;56.696;13.002;2023-05-07T06:14:29;4.07;;;2.63;;
15071;SDS011;7635;56.696;13.002;2023-05-07T06:19:23;3.80;;;2.30;;
15071;SDS011;7635;56.696;13.002;2023-05-07T06:21:51;1.57;;;1.40;;
15071;SDS011;7635;56.696;13.002;2023-05-07T06:24:18;2.07;;;1.83;;
15071;SDS011;7635;56.696;13.002;2023-05-07T06:26:45;2.90;;;2.17;;
15071;SDS011;7635;56.696;13.002;2023-05-07T06:29:11;3.08;;;2.10;;
15071;SDS011;7635;56.696;13.002;2023-05-07T06:31:39;2.10;;;1.60;;
15071;SDS011;7635;56.696;13.002;2023-05-07T06:34:06;2.00;;;1.50;;
15071;SDS011;7635;56.696;13.002;2023-05-07T06:36:33;1.80;;;1.60;;
15071;SDS011;7635;56.696;13.002;2023-05-07T06:39:00;1.50;;;1.40;;
15071;SDS011;7635;56.696;13.002;2023-05-07T06:41:27;2.43;;;1.50;;
15071;SDS011;7635;56.696;13.002;2023-05-07T06:43:53;1.63;;;1.40;;
15071;SDS011;7635;56.696;13.002;2023-05-07T06:46:20;1.70;;;1.60;;
15071;SDS011;7635;56.696;13.002;2023-05-07T06:48:48;2.53;;;1.20;;
15071;SDS011;7635;56.696;13.002;2023-05-07T06:51:15;1.33;;;1.23;;
15071;SDS011;7635;56.696;13.002;2023-05-07T06:53:41;1.60;;;1.50;;
15071;SDS011;7635;56.696;13.002;2023-05-07T06:56:08;1.30;;;1.20;;
15071;SDS011;7635;56.696;13.002;2023-05-07T06:58:35;1.40;;;1.30;;
15071;SDS011;7635;56.696;13.002;2023-05-07T07:01:01;1.30;;;1.20;;
15071;SDS011;7635;56.696;13.002;2023-05-07T07:03:28;1.30;;;1.20;;
15071;SDS011;7635;56.696;13.002;2023-05-07T07:05:56;1.70;;;1.60;;
15071;SDS011;7635;56.696;13.002;2023-05-07T07:08:23;1.57;;;1.40;;
15071;SDS011;7635;56.696;13.002;2023-05-07T07:10:50;4.10;;;1.50;;
15071;SDS011;7635;56.696;13.002;2023-05-07T07:13:17;1.30;;;1.20;;
15071;SDS011;7635;56.696;13.002;2023-05-07T07:15:44;1.67;;;1.57;;
15071;SDS011;7635;56.696;13.002;2023-05-07T07:18:10;1.33;;;1.23;;
15071;SDS011;7635;56.696;13.002;2023-05-07T07:20:37;2.33;;;1.73;;
15071;SDS011;7635;56.696;13.002;2023-05-07T07:23:05;1.40;;;1.30;;
15071;SDS011;7635;56.696;13.002;2023-05-07T07:25:32;1.20;;;1.00;;
15071;SDS011;7635;56.696;13.002;2023-05-07T07:27:59;1.37;;;1.27;;
15071;SDS011;7635;56.696;13.002;2023-05-07T07:30:25;1.77;;;1.60;;
15071;SDS011;7635;56.696;13.002;2023-05-07T07:32:52;1.73;;;1.40;;
15071;SDS011;7635;56.696;13.002;2023-05-07T07:35:20;1.13;;;1.03;;
15071;SDS011;7635;56.696;13.002;2023-05-07T07:37:46;1.67;;;1.57;;
15071;SDS011;7635;56.696;13.002;2023-05-07T07:40:16;1.10;;;1.07;;
15071;SDS011;7635;56.696;13.002;2023-05-07T07:42:43;1.67;;;1.40;;
15071;SDS011;7635;56.696;13.002;2023-05-07T07:45:10;1.70;;;1.43;;
15071;SDS011;7635;56.696;13.002;2023-05-07T07:47:37;3.73;;;1.60;;
15071;SDS011;7635;56.696;13.002;2023-05-07T07:50:04;1.47;;;1.37;;
15071;SDS011;7635;56.696;13.002;2023-05-07T07:52:31;2.97;;;1.60;;
15071;SDS011;7635;56.696;13.002;2023-05-07T07:54:58;3.57;;;1.90;;
15071;SDS011;7635;56.696;13.002;2023-05-07T07:57:26;2.07;;;1.60;;
15071;SDS011;7635;56.696;13.002;2023-05-07T07:59:53;1.80;;;1.63;;
15071;SDS011;7635;56.696;13.002;2023-05-07T08:02:20;2.03;;;1.60;;
15071;SDS011;7635;56.696;13.002;2023-05-07T08:04:47;1.97;;;1.80;;
15071;SDS011;7635;56.696;13.002;2023-05-07T08:07:13;1.80;;;1.70;;
15071;SDS011;7635;56.696;13.002;2023-05-07T08:09:40;4.03;;;1.60;;
15071;SDS011;7635;56.696;13.002;2023-05-07T08:12:07;2.17;;;1.97;;
15071;SDS011;7635;56.696;13.002;2023-05-07T08:14:35;1.37;;;1.27;;
15071;SDS011;7635;56.696;13.002;2023-05-07T08:17:02;1.90;;;1.60;;
15071;SDS011;7635;56.696;13.002;2023-05-07T08:19:29;3.73;;;1.93;;
15071;SDS011;7635;56.696;13.002;2023-05-07T08:21:56;2.67;;;1.90;;
15071;SDS011;7635;56.696;13.002;2023-05-07T08:24:22;2.57;;;1.83;;
15071;SDS011;7635;56.696;13.002;2023-05-07T08:26:49;4.37;;;1.87;;
15071;SDS011;7635;56.696;13.002;2023-05-07T08:29:16;3.90;;;1.67;;
15071;SDS011;7635;56.696;13.002;2023-05-07T08:31:44;6.90;;;1.90;;
15071;SDS011;7635;56.696;13.002;2023-05-07T08:34:10;2.10;;;1.90;;
15071;SDS011;7635;56.696;13.002;2023-05-07T08:36:37;4.63;;;1.90;;
15071;SDS011;7635;56.696;13.002;2023-05-07T08:39:04;2.73;;;2.00;;
15071;SDS011;7635;56.696;13.002;2023-05-07T08:41:31;3.77;;;2.10;;
15071;SDS011;7635;56.696;13.002;2023-05-07T08:43:58;1.77;;;1.67;;
15071;SDS011;7635;56.696;13.002;2023-05-07T08:46:25;2.53;;;1.67;;
15071;SDS011;7635;56.696;13.002;2023-05-07T08:48:58;2.30;;;2.10;;
15071;SDS011;7635;56.696;13.002;2023-05-07T08:51:25;3.93;;;2.20;;
15071;SDS011;7635;56.696;13.002;2023-05-07T08:53:52;2.20;;;2.00;;
15071;SDS011;7635;56.696;13.002;2023-05-07T08:56:19;1.70;;;1.60;;
15071;SDS011;7635;56.696;13.002;2023-05-07T08:58:46;3.07;;;1.77;;
15071;SDS011;7635;56.696;13.002;2023-05-07T09:01:14;3.23;;;2.10;;
15071;SDS011;7635;56.696;13.002;2023-05-07T09:03:42;1.93;;;1.70;;
15071;SDS011;7635;56.696;13.002;2023-05-07T09:06:13;4.00;;;2.00;;
15071;SDS011;7635;56.696;13.002;2023-05-07T09:08:40;2.00;;;1.80;;
15071;SDS011;7635;56.696;13.002;2023-05-07T09:11:06;4.53;;;2.20;;
15071;SDS011;7635;56.696;13.002;2023-05-07T09:13:33;1.50;;;1.40;;
15071;SDS011;7635;56.696;13.002;2023-05-07T09:16:09;2.10;;;1.90;;
15071;SDS011;7635;56.696;13.002;2023-05-07T09:18:40;1.53;;;1.43;;
15071;SDS011;7635;56.696;13.002;2023-05-07T09:21:09;2.00;;;1.80;;
15071;SDS011;7635;56.696;13.002;2023-05-07T09:23:38;2.23;;;1.90;;
15071;SDS011;7635;56.696;13.002;2023-05-07T09:26:06;2.23;;;1.90;;
15071;SDS011;7635;56.696;13.002;2023-05-07T09:28:37;2.00;;;1.80;;
15071;SDS011;7635;56.696;13.002;2023-05-07T09:31:05;1.53;;;1.43;;
15071;SDS011;7635;56.696;13.002;2023-05-07T09:33:32;3.90;;;2.03;;
15071;SDS011;7635;56.696;13.002;2023-05-07T09:36:01;1.60;;;1.50;;
15071;SDS011;7635;56.696;13.002;2023-05-07T09:38:29;2.50;;;2.07;;
15071;SDS011;7635;56.696;13.002;2023-05-07T09:41:04;2.83;;;1.80;;
15071;SDS011;7635;56.696;13.002;2023-05-07T09:43:32;2.33;;;1.90;;
15071;SDS011;7635;56.696;13.002;2023-05-07T09:46:01;2.57;;;1.83;;
15071;SDS011;7635;56.696;13.002;2023-05-07T09:48:29;1.87;;;1.73;;
15071;SDS011;7635;56.696;13.002;2023-05-07T09:50:57;2.27;;;1.53;;
15071;SDS011;7635;56.696;13.002;2023-05-07T09:53:29;1.50;;;1.40;;
15071;SDS011;7635;56.696;13.002;2023-05-07T09:55:56;2.20;;;1.90;;
15071;SDS011;7635;56.696;13.002;2023-05-07T09:58:25;2.37;;;2.17;;
15071;SDS011;7635;56.696;13.002;2023-05-07T10:00:53;2.53;;;1.63;;
15071;SDS011;7635;56.696;13.002;2023-05-07T10:03:20;2.23;;;2.03;;
15071;SDS011;7635;56.696;13.002;2023-05-07T10:05:50;3.70;;;1.60;;
15071;SDS011;7635;56.696;13.002;2023-05-07T10:08:17;2.33;;;2.13;;
15071;SDS011;7635;56.696;13.002;2023-05-07T10:10:45;2.73;;;1.90;;
15071;SDS011;7635;56.696;13.002;2023-05-07T10:13:12;2.07;;;1.50;;
15071;SDS011;7635;56.696;13.002;2023-05-07T10:15:40;2.83;;;1.63;;
15071;SDS011;7635;56.696;13.002;2023-05-07T10:18:07;2.03;;;1.50;;
15071;SDS011;7635;56.696;13.002;2023-05-07T10:20:34;2.30;;;1.77;;
15071;SDS011;7635;56.696;13.002;2023-05-07T10:23:03;1.73;;;1.63;;
15071;SDS011;7635;56.696;13.002;2023-05-07T10:25:31;2.17;;;1.93;;
15071;SDS011;7635;56.696;13.002;2023-05-07T10:27:59;4.43;;;1.97;;
15071;SDS011;7635;56.696;13.002;2023-05-07T10:30:33;1.70;;;1.60;;
15071;SDS011;7635;56.696;13.002;2023-05-07T10:33:08;2.07;;;1.60;;
15071;SDS011;7635;56.696;13.002;2023-05-07T10:35:38;3.23;;;1.90;;
15071;SDS011;7635;56.696;13.002;2023-05-07T10:38:07;3.23;;;1.67;;
15071;SDS011;7635;56.696;13.002;2023-05-07T10:40:34;2.33;;;1.90;;
15071;SDS011;7635;56.696;13.002;2023-05-07T10:43:02;1.60;;;1.50;;
15071;SDS011;7635;56.696;13.002;2023-05-07T10:45:30;1.80;;;1.70;;
15071;SDS011;7635;56.696;13.002;2023-05-07T10:48:09;3.63;;;1.88;;
15071;SDS011;7635;56.696;13.002;2023-05-07T10:50:37;1.77;;;1.60;;
15071;SDS011;7635;56.696;13.002;2023-05-07T10:53:23;1.30;;;1.20;;
15071;SDS011;7635;56.696;13.002;2023-05-07T10:58:54;1.70;;;1.60;;
15071;SDS011;7635;56.696;13.002;2023-05-07T11:04:18;3.87;;;1.90;;
15071;SDS011;7635;56.696;13.002;2023-05-07T11:09:56;4.87;;;1.80;;
15071;SDS011;7635;56.696;13.002;2023-05-07T11:15:34;3.63;;;1.80;;
15071;SDS011;7635;56.696;13.002;2023-05-07T11:18:13;2.00;;;1.80;;
15071;SDS011;7635;56.696;13.002;2023-05-07T11:20:50;2.07;;;1.77;;
15071;SDS011;7635;56.696;13.002;2023-05-07T11:26:44;1.60;;;1.50;;
15071;SDS011;7635;56.696;13.002;2023-05-07T11:29:12;2.07;;;1.80;;
15071;SDS011;7635;56.696;13.002;2023-05-07T11:31:40;1.70;;;1.60;;
15071;SDS011;7635;56.696;13.002;2023-05-07T11:34:07;1.80;;;1.70;;
15071;SDS011;7635;56.696;13.002;2023-05-07T11:36:40;2.60;;;1.70;;
15071;SDS011;7635;56.696;13.002;2023-05-07T11:39:22;5.50;;;1.93;;
15071;SDS011;7635;56.696;13.002;2023-05-07T11:41:50;1.90;;;1.70;;
15071;SDS011;7635;56.696;13.002;2023-05-07T11:44:16;1.70;;;1.60;;
15071;SDS011;7635;56.696;13.002;2023-05-07T11:46:43;1.60;;;1.50;;
15071;SDS011;7635;56.696;13.002;2023-05-07T11:49:11;1.93;;;1.67;;
15071;SDS011;7635;56.696;13.002;2023-05-07T11:51:39;1.77;;;1.50;;
15071;SDS011;7635;56.696;13.002;2023-05-07T11:54:07;1.70;;;1.60;;
15071;SDS011;7635;56.696;13.002;2023-05-07T11:56:36;1.60;;;1.50;;
15071;SDS011;7635;56.696;13.002;2023-05-07T11:59:03;1.57;;;1.47;;
15071;SDS011;7635;56.696;13.002;2023-05-07T12:01:30;2.13;;;1.33;;
15071;SDS011;7635;56.696;13.002;2023-05-07T12:03:57;2.07;;;1.60;;
15071;SDS011;7635;56.696;13.002;2023-05-07T12:06:24;2.00;;;1.80;;
15071;SDS011;7635;56.696;13.002;2023-05-07T12:08:52;2.07;;;1.50;;
15071;SDS011;7635;56.696;13.002;2023-05-07T12:11:22;1.90;;;1.57;;
15071;SDS011;7635;56.696;13.002;2023-05-07T12:13:50;2.43;;;2.23;;
15071;SDS011;7635;56.696;13.002;2023-05-07T12:16:17;1.87;;;1.67;;
15071;SDS011;7635;56.696;13.002;2023-05-07T12:18:45;2.53;;;1.97;;
15071;SDS011;7635;56.696;13.002;2023-05-07T12:21:12;2.00;;;1.80;;
15071;SDS011;7635;56.696;13.002;2023-05-07T12:23:39;1.70;;;1.60;;
15071;SDS011;7635;56.696;13.002;2023-05-07T12:26:07;2.50;;;1.50;;
15071;SDS011;7635;56.696;13.002;2023-05-07T12:28:38;2.73;;;1.70;;
15071;SDS011;7635;56.696;13.002;2023-05-07T12:31:05;2.53;;;2.00;;
15071;SDS011;7635;56.696;13.002;2023-05-07T12:33:32;2.83;;;1.93;;
15071;SDS011;7635;56.696;13.002;2023-05-07T12:36:02;1.57;;;1.47;;
15071;SDS011;7635;56.696;13.002;2023-05-07T12:38:34;1.60;;;1.50;;
15071;SDS011;7635;56.696;13.002;2023-05-07T12:41:01;2.10;;;1.90;;
15071;SDS011;7635;56.696;13.002;2023-05-07T12:43:29;2.40;;;1.60;;
15071;SDS011;7635;56.696;13.002;2023-05-07T12:45:56;2.63;;;1.90;;
15071;SDS011;7635;56.696;13.002;2023-05-07T12:48:26;2.50;;;1.90;;
15071;SDS011;7635;56.696;13.002;2023-05-07T12:50:53;2.03;;;1.67;;
15071;SDS011;7635;56.696;13.002;2023-05-07T12:53:21;2.47;;;1.90;;
15071;SDS011;7635;56.696;13.002;2023-05-07T12:55:49;2.93;;;1.97;;
15071;SDS011;7635;56.696;13.002;2023-05-07T12:58:18;2.20;;;1.60;;
15071;SDS011;7635;56.696;13.002;2023-05-07T13:00:48;2.20;;;2.00;;
15071;SDS011;7635;56.696;13.002;2023-05-07T13:03:23;1.90;;;1.70;;
15071;SDS011;7635;56.696;13.002;2023-05-07T13:05:51;2.00;;;1.70;;
15071;SDS011;7635;56.696;13.002;2023-05-07T13:08:25;2.00;;;1.83;;
15071;SDS011;7635;56.696;13.002;2023-05-07T13:10:56;2.90;;;2.07;;
15071;SDS011;7635;56.696;13.002;2023-05-07T13:13:24;2.70;;;1.80;;
15071;SDS011;7635;56.696;13.002;2023-05-07T13:15:53;2.50;;;1.87;;
15071;SDS011;7635;56.696;13.002;2023-05-07T13:18:19;2.00;;;1.80;;
15071;SDS011;7635;56.696;13.002;2023-05-07T13:20:46;2.20;;;1.90;;
15071;SDS011;7635;56.696;13.002;2023-05-07T13:23:13;2.58;;;1.85;;
15071;SDS011;7635;56.696;13.002;2023-05-07T13:25:39;3.40;;;2.03;;
15071;SDS011;7635;56.696;13.002;2023-05-07T13:28:06;5.03;;;2.00;;
15071;SDS011;7635;56.696;13.002;2023-05-07T13:30:33;2.20;;;2.00;;
15071;SDS011;7635;56.696;13.002;2023-05-07T13:33:01;2.93;;;1.70;;
15071;SDS011;7635;56.696;13.002;2023-05-07T13:35:28;2.10;;;1.90;;
15071;SDS011;7635;56.696;13.002;2023-05-07T13:37:54;4.07;;;2.10;;
15071;SDS011;7635;56.696;13.002;2023-05-07T13:40:21;2.80;;;2.10;;
15071;SDS011;7635;56.696;13.002;2023-05-07T13:42:48;1.67;;;1.57;;
15071;SDS011;7635;56.696;13.002;2023-05-07T13:45:15;2.10;;;1.90;;
15071;SDS011;7635;56.696;13.002;2023-05-07T13:47:42;2.97;;;2.30;;
15071;SDS011;7635;56.696;13.002;2023-05-07T13:50:11;2.20;;;2.00;;
15071;SDS011;7635;56.696;13.002;2023-05-07T13:52:40;4.80;;;2.40;;
15071;SDS011;7635;56.696;13.002;2023-05-07T13:55:10;2.33;;;1.93;;
15071;SDS011;7635;56.696;13.002;2023-05-07T13:57:37;2.67;;;1.80;;
15071;SDS011;7635;56.696;13.002;2023-05-07T14:00:05;2.30;;;2.07;;
15071;SDS011;7635;56.696;13.002;2023-05-07T14:02:32;2.87;;;2.30;;
15071;SDS011;7635;56.696;13.002;2023-05-07T14:04:59;2.33;;;1.90;;
15071;SDS011;7635;56.696;13.002;2023-05-07T14:07:27;3.13;;;2.20;;
15071;SDS011;7635;56.696;13.002;2023-05-07T14:09:54;2.70;;;2.13;;
15071;SDS011;7635;56.696;13.002;2023-05-07T14:12:21;2.63;;;2.13;;
15071;SDS011;7635;56.696;13.002;2023-05-07T14:14:47;2.20;;;2.00;;
15071;SDS011;7635;56.696;13.002;2023-05-07T14:17:14;4.67;;;2.23;;
15071;SDS011;7635;56.696;13.002;2023-05-07T14:19:42;2.20;;;2.00;;
15071;SDS011;7635;56.696;13.002;2023-05-07T14:22:08;2.15;;;1.70;;
15071;SDS011;7635;56.696;13.002;2023-05-07T14:24:36;2.13;;;1.73;;
15071;SDS011;7635;56.696;13.002;2023-05-07T14:27:04;3.57;;;2.87;;
15071;SDS011;7635;56.696;13.002;2023-05-07T14:29:31;3.55;;;2.00;;
15071;SDS011;7635;56.696;13.002;2023-05-07T14:32:00;2.67;;;2.28;;
15071;SDS011;7635;56.696;13.002;2023-05-07T14:34:27;3.40;;;2.40;;
15071;SDS011;7635;56.696;13.002;2023-05-07T14:36:53;3.57;;;2.53;;
15071;SDS011;7635;56.696;13.002;2023-05-07T14:39:20;3.30;;;2.25;;
15071;SDS011;7635;56.696;13.002;2023-05-07T14:41:48;2.00;;;1.90;;
15071;SDS011;7635;56.696;13.002;2023-05-07T14:44:15;2.20;;;2.00;;
15071;SDS011;7635;56.696;13.002;2023-05-07T14:46:41;7.37;;;2.27;;
15071;SDS011;7635;56.696;13.002;2023-05-07T14:49:08;3.40;;;2.60;;
15071;SDS011;7635;56.696;13.002;2023-05-07T14:51:41;3.17;;;2.50;;
15071;SDS011;7635;56.696;13.002;2023-05-07T14:54:08;1.90;;;1.50;;
15071;SDS011;7635;56.696;13.002;2023-05-07T14:56:35;3.43;;;2.43;;
15071;SDS011;7635;56.696;13.002;2023-05-07T14:59:03;2.03;;;1.85;;
15071;SDS011;7635;56.696;13.002;2023-05-07T15:01:30;2.47;;;2.28;;
15071;SDS011;7635;56.696;13.002;2023-05-07T15:03:56;3.75;;;2.65;;
15071;SDS011;7635;56.696;13.002;2023-05-07T15:06:23;2.47;;;2.03;;
15071;SDS011;7635;56.696;13.002;2023-05-07T15:08:51;3.05;;;2.25;;